createdAt,value
2022-08-04T00:00:43.135Z,64.69
2022-08-04T00:03:14.842Z,64.22
2022-08-04T00:05:46.680Z,65.01
2022-08-04T00:08:18.212Z,64.31
2022-08-04T00:10:50.118Z,64.55
2022-08-04T00:13:21.636Z,64.97
2022-08-04T00:15:53.564Z,65.08
2022-08-04T00:18:25.102Z,65.23
2022-08-04T00:20:57.032Z,64.68
2022-08-04T00:23:28.575Z,64.31
2022-08-04T00:26:20.404Z,64.97
2022-08-04T00:28:52.368Z,65.45
2022-08-04T00:31:54.382Z,65.43
2022-08-04T00:34:15.716Z,65.69
2022-08-04T00:36:47.281Z,66.32
2022-08-04T00:39:20.097Z,65.28
2022-08-04T00:41:56.536Z,65.58
2022-08-04T00:44:28.957Z,65.58
2022-08-04T00:47:00.548Z,67.03
2022-08-04T00:49:32.397Z,67.82
2022-08-04T00:52:30.732Z,67.80
2022-08-04T00:54:55.747Z,68.56
2022-08-04T00:57:29.877Z,67.71
2022-08-04T01:00:08.155Z,67.80
2022-08-04T01:02:39.708Z,67.24
2022-08-04T01:05:11.579Z,68.28
2022-08-04T01:07:43.115Z,68.31
2022-08-04T01:10:17.521Z,67.92
2022-08-04T01:12:49.364Z,67.96
2022-08-04T01:15:21.226Z,68.02
2022-08-04T01:17:52.737Z,68.75
2022-08-04T01:20:24.569Z,69.12
2022-08-04T01:22:56.092Z,69.21
2022-08-04T01:25:27.922Z,68.32
2022-08-04T01:28:02.721Z,68.51
2022-08-04T01:30:34.612Z,69.39
2022-08-04T01:33:06.126Z,69.74
2022-08-04T01:35:46.903Z,70.14
2022-08-04T01:38:21.783Z,69.22
2022-08-04T01:40:54.460Z,68.72
2022-08-04T01:43:25.979Z,68.53
2022-08-04T01:45:57.818Z,68.33
2022-08-04T01:48:29.375Z,68.60
2022-08-04T01:51:01.242Z,69.07
2022-08-04T01:53:32.826Z,67.88
2022-08-04T01:56:04.738Z,71.29
2022-08-04T01:58:36.297Z,71.40
2022-08-04T02:01:09.046Z,71.25
2022-08-04T02:04:18.921Z,70.93
2022-08-04T02:06:33.558Z,70.54
2022-08-04T02:09:05.087Z,71.14
2022-08-04T02:11:36.930Z,70.45
2022-08-04T02:14:08.469Z,71.86
2022-08-04T02:16:40.348Z,72.82
2022-08-04T02:19:14.797Z,70.65
2022-08-04T02:21:46.867Z,70.89
2022-08-04T02:24:18.434Z,72.44
2022-08-04T02:26:50.470Z,71.87
2022-08-04T02:29:22.017Z,72.38
2022-08-04T02:31:53.848Z,72.03
2022-08-04T02:34:25.380Z,72.06
2022-08-04T02:36:57.457Z,72.61
2022-08-04T02:39:29.383Z,72.70
2022-08-04T02:42:01.061Z,73.60
2022-08-04T02:44:32.914Z,73.65
2022-08-04T02:47:04.453Z,74.97
2022-08-04T02:49:36.006Z,74.91
2022-08-04T02:52:10.191Z,76.10
2022-08-04T02:54:42.638Z,74.93
2022-08-04T02:57:14.334Z,74.07
2022-08-04T02:59:46.413Z,74.22
2022-08-04T03:02:17.924Z,73.90
2022-08-04T03:04:49.916Z,73.13
2022-08-04T03:07:21.652Z,72.69
2022-08-04T03:09:53.438Z,72.61
2022-08-04T03:12:24.946Z,75.64
2022-08-04T03:14:56.836Z,74.24
2022-08-04T03:17:28.331Z,75.46
2022-08-04T03:20:00.170Z,75.31
2022-08-04T03:22:31.670Z,76.00
2022-08-04T03:25:03.185Z,76.91
2022-08-04T03:27:34.722Z,76.22
2022-08-04T03:30:06.618Z,76.04
2022-08-04T03:32:38.123Z,76.26
2022-08-04T03:35:10.107Z,76.90
2022-08-04T03:37:45.111Z,76.34
2022-08-04T03:40:16.945Z,76.13
2022-08-04T03:42:48.463Z,77.16
2022-08-04T03:45:23.965Z,76.00
2022-08-04T03:47:55.899Z,75.18
2022-08-04T03:50:28.503Z,76.53
2022-08-04T03:53:09.144Z,76.34
2022-08-04T03:55:41.074Z,75.68
2022-08-04T03:58:12.583Z,74.56
2022-08-04T04:00:44.413Z,73.80
2022-08-04T04:03:28.685Z,73.88
2022-08-04T04:06:02.556Z,74.12
2022-08-04T04:08:35.424Z,74.65
2022-08-04T04:11:08.658Z,74.09
2022-08-04T04:13:40.168Z,74.18
2022-08-04T04:16:12.925Z,74.94
2022-08-04T04:18:45.619Z,73.79
2022-08-04T04:21:17.531Z,73.98
2022-08-04T04:23:49.016Z,73.76
2022-08-04T04:26:20.833Z,73.85
2022-08-04T04:28:52.478Z,73.51
2022-08-04T04:31:24.468Z,72.90
2022-08-04T04:33:56.252Z,72.97
2022-08-04T04:36:29.130Z,72.19
2022-08-04T04:39:00.662Z,71.75
2022-08-04T04:41:32.487Z,71.16
2022-08-04T04:44:03.991Z,70.90
2022-08-04T04:46:35.800Z,70.63
2022-08-04T04:49:07.299Z,69.76
2022-08-04T04:51:39.185Z,69.66
2022-08-04T04:54:10.700Z,69.59
2022-08-04T04:56:42.550Z,68.90
2022-08-04T04:59:15.515Z,68.12
2022-08-04T05:01:47.816Z,68.05
2022-08-04T05:04:19.301Z,67.68
2022-08-04T05:06:54.485Z,66.93
2022-08-04T05:09:26.355Z,66.25
2022-08-04T05:11:58.296Z,65.72
2022-08-04T05:14:34.480Z,65.17
2022-08-04T05:17:10.881Z,64.46
2022-08-04T05:19:42.723Z,63.65
2022-08-04T05:22:14.898Z,63.11
2022-08-04T05:24:46.788Z,62.73
2022-08-04T05:27:18.304Z,62.20
2022-08-04T05:29:50.226Z,61.66
2022-08-04T05:32:21.732Z,61.52
2022-08-04T05:34:53.626Z,59.85
2022-08-04T05:37:25.139Z,59.42
2022-08-04T05:40:03.555Z,58.76
2022-08-04T05:42:35.049Z,58.67
2022-08-04T05:45:06.869Z,58.05
2022-08-04T05:47:38.464Z,57.39
2022-08-04T05:50:10.042Z,57.06
2022-08-04T05:52:41.759Z,56.84
2022-08-04T05:55:13.250Z,56.86
2022-08-04T05:58:04.741Z,55.99
2022-08-04T06:00:41.112Z,55.15
2022-08-04T06:03:13.215Z,54.52
2022-08-04T06:05:45.175Z,53.52
2022-08-04T06:08:16.732Z,53.71
2022-08-04T06:10:48.589Z,52.64
2022-08-04T06:13:48.996Z,51.55
2022-08-04T06:16:17.975Z,51.87
2022-08-04T06:19:59.745Z,50.79
2022-08-04T06:21:53.535Z,50.06
2022-08-04T06:24:25.050Z,50.13
2022-08-04T06:26:56.902Z,49.59
2022-08-04T06:29:35.205Z,49.87
2022-08-04T06:32:33.750Z,49.81
2022-08-04T06:35:07.457Z,49.03
2022-08-04T06:37:42.629Z,47.90
2022-08-04T06:40:31.435Z,47.57
2022-08-04T06:43:04.271Z,47.36
2022-08-04T06:45:36.139Z,46.92
2022-08-04T06:48:07.644Z,46.52
2022-08-04T06:51:24.503Z,46.99
2022-08-04T06:53:31.141Z,46.11
2022-08-04T06:56:03.004Z,45.50
2022-08-04T06:58:34.516Z,44.99
2022-08-04T07:01:06.447Z,44.60
2022-08-04T07:03:37.945Z,44.94
2022-08-04T07:06:14.271Z,44.43
2022-08-04T07:08:46.502Z,44.48
2022-08-04T07:11:18.290Z,43.97
2022-08-04T07:13:50.212Z,44.06
2022-08-04T07:16:30.741Z,44.18
2022-08-04T07:19:09.980Z,43.36
2022-08-04T07:22:16.040Z,42.91
2022-08-04T07:24:34.856Z,43.50
2022-08-04T07:27:07.016Z,43.40
2022-08-04T07:29:38.600Z,43.52
2022-08-04T07:32:11.367Z,42.06
2022-08-04T07:34:42.901Z,41.70
2022-08-04T07:37:21.947Z,42.08
2022-08-04T07:40:11.041Z,41.79
2022-08-04T07:42:42.568Z,40.96
2022-08-04T07:45:14.432Z,40.78
2022-08-04T07:48:05.088Z,40.89
2022-08-04T07:50:38.821Z,40.36
2022-08-04T07:53:54.978Z,39.76
2022-08-04T07:56:02.967Z,38.88
2022-08-04T07:58:34.473Z,39.34
2022-08-04T08:01:06.348Z,39.92
2022-08-04T08:03:37.887Z,38.64
2022-08-04T08:06:31.171Z,38.63
2022-08-04T08:09:02.254Z,38.00
2022-08-04T08:12:36.713Z,37.38
2022-08-04T08:14:37.963Z,38.00
2022-08-04T08:17:09.470Z,36.88
2022-08-04T08:19:41.504Z,36.84
2022-08-04T08:22:13.171Z,38.15
2022-08-04T08:24:44.959Z,37.55
2022-08-04T08:27:16.469Z,36.71
2022-08-04T08:29:48.413Z,37.34
2022-08-04T08:32:19.917Z,36.27
2022-08-04T08:34:51.962Z,36.52
2022-08-04T08:37:23.853Z,36.20
2022-08-04T08:39:55.928Z,35.36
2022-08-04T08:42:27.466Z,35.95
2022-08-04T08:44:59.452Z,35.24
2022-08-04T08:48:06.291Z,36.12
2022-08-04T08:50:22.730Z,34.73
2022-08-04T08:52:57.471Z,34.77
2022-08-04T08:55:35.484Z,35.70
2022-08-04T08:58:06.991Z,34.02
2022-08-04T09:00:40.818Z,35.60
2022-08-04T09:03:12.359Z,35.30
2022-08-04T09:05:44.205Z,33.45
2022-08-04T09:08:15.720Z,32.41
2022-08-04T09:10:47.557Z,32.21
2022-08-04T09:13:19.061Z,33.29
2022-08-04T09:15:54.162Z,31.87
2022-08-04T09:18:26.059Z,32.40
2022-08-04T09:20:58.044Z,31.76
2022-08-04T09:23:29.554Z,31.56
2022-08-04T09:26:01.631Z,31.17
2022-08-04T09:28:52.857Z,31.44
2022-08-04T09:31:24.630Z,31.52
2022-08-04T09:33:56.161Z,29.89
2022-08-04T09:36:28.107Z,30.12
2022-08-04T09:38:59.711Z,30.47
2022-08-04T09:41:48.469Z,30.67
2022-08-04T09:44:49.761Z,30.49
2022-08-04T09:47:12.514Z,29.35
2022-08-04T09:49:44.668Z,29.86
2022-08-04T09:52:16.422Z,29.62
2022-08-04T09:54:48.406Z,30.39
2022-08-04T09:57:19.919Z,29.50
2022-08-04T09:59:51.723Z,29.95
2022-08-04T10:02:23.509Z,29.12
2022-08-04T10:04:55.710Z,28.64
2022-08-04T10:07:27.203Z,28.49
2022-08-04T10:10:00.041Z,27.90
2022-08-04T10:12:31.818Z,27.97
2022-08-04T10:15:03.898Z,28.45
2022-08-04T10:17:35.793Z,27.83
2022-08-04T10:20:07.651Z,27.70
2022-08-04T10:22:50.026Z,28.41
2022-08-04T10:26:03.356Z,27.18
2022-08-04T10:28:22.724Z,26.89
2022-08-04T10:30:54.512Z,27.18
2022-08-04T10:33:26.017Z,27.94
2022-08-04T10:35:57.885Z,28.67
2022-08-04T10:38:29.387Z,27.88
2022-08-04T10:41:01.172Z,27.06
2022-08-04T10:43:32.664Z,27.43
2022-08-04T10:46:04.194Z,27.07
2022-08-04T10:48:35.683Z,27.33
2022-08-04T10:51:07.632Z,27.17
2022-08-04T10:53:39.145Z,26.73
2022-08-04T10:56:10.966Z,26.26
2022-08-04T10:58:48.082Z,26.83
2022-08-04T11:02:00.894Z,28.32
2022-08-04T11:04:12.539Z,27.92
2022-08-04T11:06:44.514Z,26.47
2022-08-04T11:09:16.045Z,26.90
2022-08-04T11:12:00.673Z,26.87
2022-08-04T11:14:33.448Z,27.00
2022-08-04T11:17:05.295Z,26.53
2022-08-04T11:19:45.376Z,25.71
2022-08-04T11:22:19.511Z,24.66
2022-08-04T11:24:51.024Z,24.95
2022-08-04T11:27:23.223Z,25.51
2022-08-04T11:29:54.879Z,26.00
2022-08-04T11:32:26.696Z,26.13
2022-08-04T11:34:58.192Z,26.55
2022-08-04T11:37:30.283Z,26.50
2022-08-04T11:40:02.197Z,25.93
2022-08-04T11:42:33.712Z,24.43
2022-08-04T11:45:05.797Z,25.79
2022-08-04T11:47:38.821Z,25.40
2022-08-04T11:50:10.772Z,25.98
2022-08-04T11:52:42.350Z,24.79
2022-08-04T11:55:14.185Z,25.89
2022-08-04T11:57:45.731Z,25.15
2022-08-04T12:00:26.175Z,25.80
2022-08-04T12:02:57.713Z,26.16
2022-08-04T12:05:36.548Z,25.60
2022-08-04T12:08:09.123Z,25.62
2022-08-04T12:10:42.666Z,25.01
2022-08-04T12:13:14.547Z,25.49
2022-08-04T12:15:46.365Z,24.08
2022-08-04T12:18:17.920Z,24.03
2022-08-04T12:20:50.430Z,24.63
2022-08-04T12:23:23.084Z,25.83
2022-08-04T12:25:55.282Z,25.27
2022-08-04T12:28:28.268Z,25.57
2022-08-04T12:31:06.220Z,24.03
2022-08-04T12:34:04.840Z,25.02
2022-08-04T12:36:33.324Z,24.12
2022-08-04T12:39:04.875Z,24.03
2022-08-04T12:41:36.835Z,24.24
2022-08-04T12:44:36.069Z,24.70
2022-08-04T12:47:27.039Z,24.63
2022-08-04T12:49:59.991Z,24.92
2022-08-04T12:53:00.417Z,24.22
2022-08-04T12:55:24.994Z,23.37
2022-08-04T12:57:56.581Z,24.25
2022-08-04T13:00:31.152Z,22.51
2022-08-04T13:03:06.299Z,22.87
2022-08-04T13:05:42.257Z,23.03
2022-08-04T13:08:13.851Z,23.64
2022-08-04T13:10:45.720Z,24.39
2022-08-04T13:13:17.282Z,23.67
2022-08-04T13:15:56.412Z,23.65
2022-08-04T13:18:30.292Z,23.72
2022-08-04T13:21:08.212Z,23.28
2022-08-04T13:24:10.293Z,23.31
2022-08-04T13:26:54.656Z,22.75
2022-08-04T13:29:59.371Z,22.69
2022-08-04T13:32:18.983Z,21.95
2022-08-04T13:34:52.402Z,22.10
2022-08-04T13:37:25.349Z,22.12
2022-08-04T13:39:57.712Z,22.04
2022-08-04T13:42:29.272Z,21.98
2022-08-04T13:45:01.115Z,21.97
2022-08-04T13:47:33.384Z,21.72
2022-08-04T13:50:10.814Z,22.01
2022-08-04T13:52:43.262Z,21.70
2022-08-04T13:55:15.108Z,21.41
2022-08-04T13:57:46.632Z,21.16
2022-08-04T14:00:29.304Z,21.30
2022-08-04T14:03:02.474Z,22.00
2022-08-04T14:05:59.838Z,21.79
2022-08-04T14:08:25.836Z,22.17
2022-08-04T14:10:58.075Z,21.92
2022-08-04T14:13:29.598Z,22.09
2022-08-04T14:16:13.518Z,21.61
2022-08-04T14:18:45.021Z,21.97
2022-08-04T14:21:16.875Z,21.27
2022-08-04T14:23:49.077Z,21.19
2022-08-04T14:26:20.984Z,21.17
2022-08-04T14:29:28.517Z,21.42
2022-08-04T14:31:57.700Z,22.25
2022-08-04T14:34:31.014Z,22.19
2022-08-04T14:37:16.862Z,22.04
2022-08-04T14:40:17.888Z,21.44
2022-08-04T14:42:41.613Z,20.79
2022-08-04T14:45:13.713Z,21.47
2022-08-04T14:47:52.617Z,21.85
2022-08-04T14:50:25.122Z,22.18
2022-08-04T14:52:56.616Z,22.05
2022-08-04T14:55:28.229Z,22.03
2022-08-04T14:58:36.459Z,20.70
2022-08-04T15:00:51.789Z,22.23
2022-08-04T15:03:24.177Z,21.08
2022-08-04T15:06:02.757Z,21.90
2022-08-04T15:08:37.206Z,20.83
2022-08-04T15:11:09.036Z,21.28
2022-08-04T15:13:40.536Z,22.00
2022-08-04T15:16:12.050Z,20.89
2022-08-04T15:18:43.619Z,20.71
2022-08-04T15:21:22.607Z,20.87
2022-08-04T15:23:54.489Z,21.50
2022-08-04T15:26:25.996Z,21.54
2022-08-04T15:28:57.831Z,21.31
2022-08-04T15:32:07.329Z,21.71
2022-08-04T15:34:21.355Z,21.42
2022-08-04T15:36:57.033Z,22.70
2022-08-04T15:39:29.417Z,22.25
2022-08-04T15:42:01.900Z,22.04
2022-08-04T15:44:33.809Z,22.47
2022-08-04T15:47:05.400Z,22.88
2022-08-04T15:49:39.802Z,21.48
2022-08-04T15:52:12.419Z,21.73
2022-08-04T15:54:52.634Z,21.63
2022-08-04T15:57:24.477Z,22.53
2022-08-04T16:00:00.721Z,23.23
2022-08-04T16:02:32.295Z,23.18
2022-08-04T16:05:04.275Z,22.79
2022-08-04T16:07:53.817Z,22.86
2022-08-04T16:10:25.592Z,22.62
2022-08-04T16:12:57.391Z,22.66
2022-08-04T16:15:29.525Z,23.26
2022-08-04T16:18:01.021Z,23.48
2022-08-04T16:20:32.872Z,23.64
2022-08-04T16:23:04.417Z,23.95
2022-08-04T16:25:37.673Z,24.40
2022-08-04T16:28:17.992Z,24.79
2022-08-04T16:30:49.892Z,24.97
2022-08-04T16:33:22.830Z,25.13
2022-08-04T16:35:54.895Z,25.32
2022-08-04T16:38:42.105Z,25.23
2022-08-04T16:41:13.768Z,25.54
2022-08-04T16:43:45.340Z,25.34
2022-08-04T16:46:21.938Z,25.57
2022-08-04T16:48:53.620Z,24.92
2022-08-04T16:51:25.562Z,24.85
2022-08-04T16:54:04.849Z,24.77
2022-08-04T16:56:37.228Z,24.98
2022-08-04T16:59:09.717Z,25.57
2022-08-04T17:01:41.478Z,25.26
2022-08-04T17:04:13.383Z,25.22
2022-08-04T17:06:46.210Z,25.60
2022-08-04T17:09:17.944Z,25.53
2022-08-04T17:11:49.452Z,25.54
2022-08-04T17:14:21.362Z,25.97
2022-08-04T17:16:52.872Z,26.04
2022-08-04T17:19:26.338Z,26.12
2022-08-04T17:22:04.392Z,26.24
2022-08-04T17:24:38.532Z,26.65
2022-08-04T17:28:20.582Z,26.68
2022-08-04T17:30:01.928Z,26.71
2022-08-04T17:32:33.467Z,26.62
2022-08-04T17:35:05.446Z,26.71
2022-08-04T17:37:39.354Z,26.71
2022-08-04T17:40:13.582Z,26.33
2022-08-04T17:42:45.719Z,26.62
2022-08-04T17:48:09.514Z,26.88
2022-08-04T17:50:43.279Z,27.32
2022-08-04T17:53:16.983Z,27.51
2022-08-04T17:55:53.758Z,27.82
2022-08-04T17:58:28.490Z,27.64
2022-08-04T18:01:16.551Z,27.50
2022-08-04T18:06:44.069Z,29.19
2022-08-04T18:09:23.002Z,29.04
2022-08-04T18:12:08.203Z,28.73
2022-08-04T18:14:46.873Z,28.58
2022-08-04T18:18:19.744Z,28.74
2022-08-04T18:20:15.405Z,28.97
2022-08-04T18:22:47.518Z,28.82
2022-08-04T18:25:20.579Z,29.29
2022-08-04T18:27:53.708Z,29.62
2022-08-04T18:30:38.294Z,29.57
2022-08-04T18:33:40.895Z,30.44
2022-08-04T18:36:34.973Z,30.23
2022-08-04T18:39:13.400Z,31.00
2022-08-04T18:42:01.520Z,30.02
2022-08-04T18:44:52.180Z,30.50
2022-08-04T18:47:29.484Z,30.69
2022-08-04T18:51:01.837Z,30.85
2022-08-04T18:52:55.691Z,31.13
2022-08-04T18:55:56.189Z,31.24
2022-08-04T19:01:13.535Z,31.90
2022-08-04T19:03:48.224Z,32.90
2022-08-04T19:06:25.768Z,31.92
2022-08-04T19:08:57.720Z,32.10
2022-08-04T19:11:54.442Z,33.12
2022-08-04T19:14:21.635Z,32.42
2022-08-04T19:16:54.474Z,33.58
2022-08-04T19:19:47.747Z,33.70
2022-08-04T19:22:35.574Z,33.85
2022-08-04T19:25:09.018Z,33.96
2022-08-04T19:27:40.611Z,34.58
2022-08-04T19:30:12.315Z,34.39
2022-08-04T19:32:48.782Z,34.27
2022-08-04T19:35:20.730Z,34.73
2022-08-04T19:37:57.876Z,34.74
2022-08-04T19:40:34.198Z,34.89
2022-08-04T19:43:15.255Z,35.27
2022-08-04T19:45:47.468Z,35.21
2022-08-04T19:48:20.166Z,35.74
2022-08-04T19:50:52.382Z,35.73
2022-08-04T19:53:26.714Z,36.60
2022-08-04T19:56:09.627Z,36.07
2022-08-04T19:58:41.971Z,35.90
2022-08-04T20:01:33.444Z,36.04
2022-08-04T20:04:11.320Z,36.35
2022-08-04T20:06:43.552Z,36.45
2022-08-04T20:09:26.383Z,36.64
2022-08-04T20:11:59.049Z,37.04
2022-08-04T20:14:32.639Z,37.38
2022-08-04T20:17:10.149Z,37.78
2022-08-04T20:19:42.266Z,38.27
2022-08-04T20:22:51.665Z,38.31
2022-08-04T20:25:36.076Z,38.61
2022-08-04T20:28:06.850Z,38.58
2022-08-04T20:30:38.663Z,38.12
2022-08-04T20:33:14.004Z,38.53
2022-08-04T20:36:05.288Z,38.60
2022-08-04T20:38:37.391Z,38.60
2022-08-04T20:41:09.219Z,38.51
2022-08-04T20:43:40.916Z,37.84
2022-08-04T20:46:18.019Z,37.88
2022-08-04T20:48:57.240Z,37.97
2022-08-04T20:51:31.954Z,37.13
2022-08-04T20:54:16.558Z,37.80
2022-08-04T20:56:55.709Z,37.44
2022-08-04T20:59:31.240Z,37.73
2022-08-04T21:02:03.184Z,37.83
2022-08-04T21:04:35.904Z,37.58
2022-08-04T21:07:08.144Z,37.46
2022-08-04T21:09:49.868Z,37.65
2022-08-04T21:12:27.578Z,37.58
2022-08-04T21:15:13.208Z,37.90
2022-08-04T21:20:42.346Z,38.02
2022-08-04T21:23:14.573Z,37.97
2022-08-04T21:25:51.070Z,38.59
2022-08-04T21:28:22.594Z,38.82
2022-08-04T21:30:59.847Z,39.10
2022-08-04T21:33:50.905Z,39.57
2022-08-04T21:36:27.316Z,39.73
2022-08-04T21:38:59.407Z,38.93
2022-08-04T21:41:31.356Z,39.70
2022-08-04T21:44:02.927Z,40.19
2022-08-04T21:46:44.250Z,40.15
2022-08-04T21:49:16.232Z,40.47
2022-08-04T21:51:59.954Z,40.60
2022-08-04T21:54:32.889Z,40.84
2022-08-04T21:57:04.648Z,41.47
2022-08-04T21:59:45.212Z,42.10
2022-08-04T22:02:18.096Z,42.25
2022-08-04T22:04:51.200Z,41.21
2022-08-04T22:07:23.691Z,39.93
2022-08-04T22:10:00.364Z,41.13
2022-08-04T22:12:34.772Z,40.65
2022-08-04T22:15:22.793Z,41.64
2022-08-04T22:18:00.422Z,41.39
2022-08-04T22:20:36.314Z,42.44
2022-08-04T22:23:16.964Z,42.43
2022-08-04T22:25:55.797Z,41.58
2022-08-04T22:28:28.782Z,42.10
2022-08-04T22:31:00.903Z,42.74
2022-08-04T22:33:54.434Z,43.16
2022-08-04T22:36:27.426Z,44.45
2022-08-04T22:39:07.016Z,43.80
2022-08-04T22:42:03.252Z,44.60
2022-08-04T22:44:32.977Z,44.16
2022-08-04T22:47:05.056Z,43.67
2022-08-04T22:49:36.897Z,43.81
2022-08-04T22:52:12.644Z,44.40
2022-08-04T22:54:59.136Z,44.09
2022-08-04T22:57:43.341Z,44.35
2022-08-04T23:00:28.515Z,44.67
2022-08-04T23:03:00.628Z,44.65
2022-08-04T23:05:35.740Z,44.72
2022-08-04T23:08:07.623Z,44.68
2022-08-04T23:10:44.026Z,44.89
2022-08-04T23:13:22.501Z,45.09
2022-08-04T23:15:55.206Z,45.23
2022-08-04T23:18:26.924Z,45.04
2022-08-04T23:20:59.520Z,45.01
2022-08-04T23:23:31.704Z,45.52
2022-08-04T23:26:07.697Z,45.79
2022-08-04T23:28:40.245Z,45.98
2022-08-04T23:31:12.280Z,46.12
2022-08-04T23:33:49.389Z,46.63
2022-08-04T23:36:30.130Z,46.64
2022-08-04T23:39:04.108Z,47.15
2022-08-04T23:41:54.562Z,47.26
2022-08-04T23:44:28.188Z,46.82
2022-08-04T23:46:59.876Z,47.01
2022-08-04T23:49:44.138Z,47.28
2022-08-04T23:52:28.004Z,47.70
2022-08-04T23:55:02.196Z,47.67
2022-08-04T23:58:05.712Z,48.07
